Time;durP1;ratioP1;P1;durP2;ratioP2;P2;SDS_P1;SDS_P2;PMS_P1;PMS_P2;Temp;Humidity;BMP_temperature;BMP_pressure;BME280_temperature;BME280_humidity;BME280_pressure;Samples;Min_cycle;Max_cycle;Signal;HPM_P1;HPM_P2
2023/09/18 00:01:06;;;;;;;12.32;3.25;;;17.90;99.90;;;17.45;100.00;96965.91;5040585;28;20049;-74
2023/09/18 00:03:33;;;;;;;9.55;4.45;;;18.00;99.90;;;17.60;100.00;96964.66;5040488;28;20065;-74
2023/09/18 00:06:01;;;;;;;8.88;4.70;;;18.00;99.90;;;17.41;100.00;96964.47;5040682;28;20060;-74
2023/09/18 00:08:28;;;;;;;8.32;4.10;;;18.00;99.90;;;17.66;100.00;96960.72;5040796;28;20055;-74
2023/09/18 00:10:55;;;;;;;11.43;5.40;;;18.10;99.90;;;17.57;100.00;96957.03;5040044;28;20650;-74
2023/09/18 00:13:23;;;;;;;10.65;3.70;;;18.10;99.90;;;17.52;100.00;96954.78;5039957;28;20083;-75
2023/09/18 00:15:54;;;;;;;12.05;3.90;;;18.10;99.90;;;17.68;100.00;96950.91;5041547;28;20132;-75
2023/09/18 00:18:21;;;;;;;14.80;4.32;;;18.10;99.90;;;17.53;100.00;96942.50;5039335;28;20826;-74
2023/09/18 00:20:51;;;;;;;8.30;3.63;;;18.10;99.90;;;17.59;100.00;96938.56;5040505;28;20057;-74
2023/09/18 00:23:19;;;;;;;6.82;2.83;;;18.10;99.90;;;17.61;100.00;96932.22;5023624;28;20053;-74
2023/09/18 00:25:46;;;;;;;8.82;3.53;;;18.10;99.90;;;17.70;100.00;96933.25;5041516;28;20080;-75
2023/09/18 00:28:14;;;;;;;6.63;3.42;;;18.10;99.90;;;17.73;100.00;96933.81;5021792;28;20060;-74
2023/09/18 00:30:49;;;;;;;8.57;4.03;;;18.10;99.90;;;17.85;100.00;96929.38;5038846;28;20585;-74
2023/09/18 00:33:19;;;;;;;7.22;3.58;;;18.20;99.90;;;17.88;100.00;96934.41;5039715;28;20611;-74
2023/09/18 00:35:51;;;;;;;8.82;3.15;;;18.30;99.90;;;17.84;100.00;96932.16;5041577;28;20049;-74
2023/09/18 00:38:19;;;;;;;7.55;2.72;;;18.30;99.90;;;18.05;100.00;96937.41;5039727;28;20049;-74
2023/09/18 00:40:47;;;;;;;7.32;3.47;;;18.40;99.90;;;18.21;100.00;96924.66;5039920;28;20103;-75
2023/09/18 00:43:14;;;;;;;7.10;2.10;;;18.50;99.90;;;18.32;100.00;96944.78;5038268;28;20041;-74
2023/09/18 00:45:48;;;;;;;7.53;2.65;;;18.50;99.90;;;18.60;100.00;96935.41;5041489;28;20064;-74
2023/09/18 00:48:16;;;;;;;6.18;2.88;;;18.80;99.90;;;18.93;100.00;96925.59;5039392;28;20079;-74
2023/09/18 00:50:45;;;;;;;6.40;1.88;;;18.90;99.90;;;19.50;100.00;96915.31;5041555;28;20136;-74
2023/09/18 00:53:22;;;;;;;13.07;1.70;;;19.40;99.90;;;19.72;100.00;96907.19;5040643;28;20518;-74
2023/09/18 00:55:53;;;;;;;9.00;1.92;;;19.80;99.90;;;19.91;100.00;96901.09;5041241;28;20049;-75
2023/09/18 00:58:20;;;;;;;7.60;2.17;;;20.00;99.90;;;19.78;100.00;96903.19;5037401;28;20209;-75
2023/09/18 01:00:49;;;;;;;6.57;1.80;;;20.20;99.90;;;19.86;100.00;96911.22;5055067;28;20133;-75
2023/09/18 01:03:19;;;;;;;12.05;1.95;;;20.20;99.90;;;19.94;100.00;96915.78;5040678;28;20474;-75
2023/09/18 01:05:47;;;;;;;9.00;2.17;;;20.30;99.90;;;20.38;100.00;96916.13;5041779;28;20057;-75
2023/09/18 01:08:14;;;;;;;9.00;2.10;;;20.50;99.90;;;20.72;100.00;96916.47;5040378;28;20049;-75
2023/09/18 01:11:08;;;;;;;9.43;2.40;;;20.90;99.90;;;20.86;100.00;96929.16;5035510;28;20049;-75
2023/09/18 01:13:51;;;;;;;7.95;1.92;;;21.00;99.90;;;20.79;100.00;96932.53;5055205;28;20045;-75
2023/09/18 01:16:36;;;;;;;9.40;2.40;;;21.20;99.90;;;21.22;100.00;96933.72;5022351;28;20043;-75
2023/09/18 01:19:04;;;;;;;8.02;2.17;;;21.40;99.90;;;21.24;100.00;96948.44;5043472;28;20041;-75
2023/09/18 01:21:31;;;;;;;9.15;2.20;;;21.50;99.90;;;21.33;100.00;96948.53;5039358;28;20106;-74
2023/09/18 01:23:58;;;;;;;8.45;2.22;;;21.60;99.90;;;21.23;100.00;96943.28;5042684;28;20869;-75
2023/09/18 01:26:25;;;;;;;10.43;2.00;;;21.60;99.90;;;21.03;100.00;96945.22;5056670;28;20060;-74
2023/09/18 01:28:53;;;;;;;11.00;2.92;;;21.60;99.90;;;21.06;100.00;96934.38;5041389;28;21765;-75
2023/09/18 01:31:21;;;;;;;19.88;2.90;;;21.50;99.90;;;21.27;100.00;96931.47;5042168;28;20059;-75
2023/09/18 01:33:49;;;;;;;7.97;2.45;;;21.60;99.90;;;21.27;100.00;96932.28;5058196;28;20053;-75
2023/09/18 01:36:18;;;;;;;12.95;2.47;;;21.60;99.90;;;21.27;100.00;96940.22;5059806;28;20670;-75
2023/09/18 01:38:46;;;;;;;8.68;2.88;;;21.60;99.90;;;21.36;100.00;96948.25;5041876;28;20113;-74
2023/09/18 01:41:13;;;;;;;16.05;3.03;;;21.70;99.90;;;21.39;100.00;96959.31;5052324;28;20048;-74
2023/09/18 01:43:41;;;;;;;14.65;3.40;;;21.70;99.90;;;21.27;100.00;96942.03;5039989;28;20061;-75
2023/09/18 01:46:08;;;;;;;14.30;3.10;;;21.70;99.90;;;21.18;100.00;96948.19;5042541;28;20149;-74
2023/09/18 01:48:35;;;;;;;23.80;4.25;;;21.70;99.90;;;21.10;100.00;96933.94;5041609;28;20068;-75
2023/09/18 01:51:03;;;;;;;22.25;3.75;;;21.60;99.90;;;21.16;100.00;96931.66;5041142;28;20111;-74
2023/09/18 01:53:30;;;;;;;17.27;3.92;;;21.60;99.90;;;21.04;100.00;96931.88;5038705;28;20040;-74
2023/09/18 01:55:58;;;;;;;24.50;4.65;;;21.50;99.90;;;21.15;100.00;96928.22;5042310;28;20041;-75
2023/09/18 01:58:25;;;;;;;14.02;3.90;;;21.50;99.90;;;21.17;100.00;96936.00;5037626;28;20044;-74
2023/09/18 02:00:52;;;;;;;20.52;4.13;;;21.50;99.90;;;20.99;100.00;96926.22;5040743;28;20052;-75
2023/09/18 02:03:21;;;;;;;20.73;4.22;;;21.40;99.90;;;20.99;100.00;96906.91;5021256;28;20154;-75
2023/09/18 02:06:11;;;;;;;18.30;4.05;;;21.40;99.90;;;21.05;100.00;96908.94;5044866;28;20060;-75
2023/09/18 02:08:38;;;;;;;20.75;4.03;;;21.40;99.90;;;21.02;100.00;96906.63;5056063;28;20055;-75
2023/09/18 02:11:05;;;;;;;19.77;3.75;;;21.40;99.90;;;20.93;100.00;96895.13;5042066;28;20053;-75
2023/09/18 02:13:32;;;;;;;22.35;4.50;;;21.50;99.90;;;20.97;100.00;96891.22;5038925;28;20049;-74
2023/09/18 02:15:59;;;;;;;18.20;4.20;;;21.40;99.90;;;21.02;100.00;96880.22;5042882;28;20427;-74
2023/09/18 02:18:26;;;;;;;23.55;4.50;;;21.40;99.90;;;21.05;100.00;96862.31;5041156;28;20132;-74
2023/09/18 02:20:54;;;;;;;18.88;4.78;;;21.50;99.90;;;20.94;100.00;96851.97;5046372;28;20683;-75
2023/09/18 02:23:21;;;;;;;25.15;4.72;;;21.50;99.90;;;20.73;100.00;96854.00;5045981;28;20295;-75
2023/09/18 02:25:57;;;;;;;25.00;5.30;;;21.40;99.90;;;20.79;100.00;96854.25;5060803;28;20114;-75
2023/09/18 02:28:24;;;;;;;19.98;4.15;;;21.30;99.90;;;20.76;100.00;96833.44;5058196;28;20131;-75
2023/09/18 02:30:51;;;;;;;18.95;5.50;;;21.30;99.90;;;20.89;100.00;96838.34;5043578;28;20551;-75
2023/09/18 02:33:18;;;;;;;20.80;4.55;;;21.30;99.90;;;20.93;100.00;96855.56;5045735;28;20048;-75
2023/09/18 02:35:46;;;;;;;20.92;4.70;;;21.30;99.90;;;20.99;100.00;96865.53;5059581;28;20045;-75
2023/09/18 02:38:13;;;;;;;24.00;5.53;;;21.30;99.90;;;20.93;100.00;96873.19;5047068;28;20927;-75
2023/09/18 02:40:40;;;;;;;29.17;5.10;;;21.30;99.90;;;20.66;100.00;96874.84;5044386;28;20049;-75
2023/09/18 02:43:07;;;;;;;22.08;4.72;;;21.20;99.90;;;20.67;100.00;96889.72;5047831;28;20369;-75
2023/09/18 02:45:37;;;;;;;22.65;4.88;;;21.20;99.90;;;20.65;100.00;96891.66;5045372;28;20106;-75
2023/09/18 02:48:05;;;;;;;20.17;4.07;;;21.10;99.90;;;20.52;100.00;96899.03;5058306;28;20133;-75
2023/09/18 02:50:35;;;;;;;22.02;4.47;;;21.10;99.90;;;20.50;100.00;96914.16;5045248;28;20054;-75
2023/09/18 02:53:03;;;;;;;28.92;5.38;;;21.10;99.90;;;20.48;100.00;96920.41;5043443;28;20045;-75
2023/09/18 02:55:30;;;;;;;18.27;4.10;;;21.10;99.90;;;20.63;100.00;96926.06;5043212;28;20413;-75
2023/09/18 02:57:57;;;;;;;23.27;5.22;;;21.00;99.90;;;20.55;100.00;96940.91;5045241;28;20183;-74
2023/09/18 03:00:24;;;;;;;22.48;5.35;;;21.00;99.90;;;20.46;100.00;96934.72;5039473;28;20045;-75
2023/09/18 03:03:10;;;;;;;23.40;4.30;;;21.00;99.90;;;20.53;100.00;96935.81;5045587;28;20049;-75
2023/09/18 03:05:39;;;;;;;25.00;4.75;;;20.90;99.90;;;20.45;100.00;96933.03;5028190;28;20052;-74
2023/09/18 03:08:07;;;;;;;19.70;4.88;;;20.90;99.90;;;20.31;100.00;96936.13;5044267;28;20049;-74
2023/09/18 03:10:40;;;;;;;21.65;4.35;;;20.90;99.90;;;20.30;100.00;96942.34;5061308;28;20041;-75
2023/09/18 03:13:09;;;;;;;28.60;5.10;;;20.80;99.90;;;20.34;100.00;96936.66;5043681;28;20168;-74
2023/09/18 03:15:37;;;;;;;23.88;4.88;;;20.80;99.90;;;20.19;100.00;96935.47;5041080;28;20048;-74
2023/09/18 03:18:05;;;;;;;24.95;4.75;;;20.70;99.90;;;20.24;100.00;96941.94;5039423;28;20053;-74
2023/09/18 03:20:33;;;;;;;20.60;4.80;;;20.70;99.90;;;20.19;100.00;96925.75;5042430;28;20049;-75
2023/09/18 03:23:02;;;;;;;27.52;5.18;;;20.70;99.90;;;20.17;100.00;96927.69;5041360;28;20054;-75
2023/09/18 03:25:29;;;;;;;17.42;4.10;;;20.70;99.90;;;20.26;100.00;96923.38;5044166;28;20053;-74
2023/09/18 03:28:16;;;;;;;15.15;4.55;;;20.70;99.90;;;20.31;100.00;96917.69;5042913;28;20049;-75
2023/09/18 03:30:43;;;;;;;17.83;4.45;;;20.70;99.90;;;20.20;100.00;96908.13;5044770;28;20135;-74
2023/09/18 03:33:11;;;;;;;20.45;4.85;;;20.70;99.90;;;20.10;100.00;96920.50;5058677;28;20076;-74
2023/09/18 03:35:58;;;;;;;24.38;4.60;;;20.60;99.90;;;19.87;100.00;96931.31;5043106;28;20091;-75
2023/09/18 03:38:26;;;;;;;21.63;5.07;;;20.60;99.90;;;19.67;100.00;96917.28;5057451;28;20052;-75
2023/09/18 03:40:53;;;;;;;19.17;4.55;;;20.40;99.90;;;19.51;100.00;96909.09;5060986;28;20529;-75
2023/09/18 03:43:21;;;;;;;20.30;4.35;;;20.20;99.90;;;19.40;100.00;96929.31;5028456;28;20064;-75
2023/09/18 03:45:49;;;;;;;18.90;4.10;;;20.10;99.90;;;19.27;100.00;96933.16;5045623;28;20163;-75
2023/09/18 03:48:16;;;;;;;22.40;4.90;;;20.00;99.90;;;19.23;100.00;96922.09;5040776;28;20045;-75
2023/09/18 03:50:43;;;;;;;21.45;4.60;;;19.80;99.90;;;19.22;100.00;96917.78;5040490;28;20469;-75
2023/09/18 03:53:11;;;;;;;21.15;4.28;;;19.90;99.90;;;19.17;100.00;96917.34;5059019;28;20081;-75
2023/09/18 03:55:38;;;;;;;20.17;4.28;;;19.80;99.90;;;19.19;100.00;96925.94;5043639;28;20103;-75
2023/09/18 03:58:06;;;;;;;16.90;4.72;;;19.80;99.90;;;19.03;100.00;96915.94;5045428;28;20523;-75
2023/09/18 04:00:33;;;;;;;22.83;4.45;;;19.70;99.90;;;19.05;100.00;96927.16;5041076;28;20080;-74
2023/09/18 04:03:00;;;;;;;17.95;4.35;;;19.60;99.90;;;18.93;100.00;96931.69;5043142;28;20240;-74
2023/09/18 04:05:27;;;;;;;19.83;4.25;;;19.60;99.90;;;18.86;100.00;96921.81;5042391;28;20057;-74
2023/09/18 04:07:55;;;;;;;15.35;2.75;;;19.50;99.90;;;18.86;100.00;96922.69;5043713;28;20063;-75
2023/09/18 04:10:26;;;;;;;19.65;4.85;;;19.50;99.90;;;18.86;100.00;96930.56;5039810;28;20136;-75
2023/09/18 04:12:53;;;;;;;20.25;5.25;;;19.40;99.90;;;18.95;100.00;96931.53;5041737;28;20040;-75
2023/09/18 04:15:22;;;;;;;20.08;4.15;;;19.40;99.90;;;18.83;100.00;96927.38;5045153;28;20053;-74
2023/09/18 04:17:49;;;;;;;20.67;3.25;;;19.40;99.90;;;18.75;100.00;96923.56;5041981;28;20168;-75
2023/09/18 04:20:16;;;;;;;19.83;4.68;;;19.30;99.90;;;18.66;100.00;96926.16;5045244;28;20519;-75
2023/09/18 04:22:50;;;;;;;19.55;4.63;;;19.30;99.90;;;18.61;100.00;96910.78;5040895;28;20064;-76
2023/09/18 04:25:19;;;;;;;17.23;4.05;;;19.20;99.90;;;18.57;100.00;96910.22;5042600;28;20064;-75
2023/09/18 04:27:49;;;;;;;18.42;4.00;;;19.20;99.90;;;18.53;100.00;96916.69;5021869;28;20076;-75
2023/09/18 04:30:19;;;;;;;20.02;5.00;;;19.10;99.90;;;18.52;100.00;96932.56;5036258;28;20055;-74
2023/09/18 04:32:47;;;;;;;19.40;5.22;;;19.10;99.90;;;18.53;100.00;96935.06;5021806;28;20057;-75
2023/09/18 04:35:14;;;;;;;16.70;4.32;;;19.00;99.90;;;18.46;100.00;96941.00;5036577;28;20524;-75
2023/09/18 04:37:41;;;;;;;18.13;4.57;;;19.00;99.90;;;18.47;100.00;96945.28;5044086;28;20071;-75
2023/09/18 04:40:09;;;;;;;18.83;2.70;;;19.00;99.90;;;18.48;100.00;96945.16;5043936;28;20072;-75
2023/09/18 04:42:39;;;;;;;25.08;4.90;;;19.00;99.90;;;18.48;100.00;96941.72;5024349;28;20072;-75
2023/09/18 04:45:08;;;;;;;15.20;3.40;;;19.00;99.90;;;18.52;100.00;96937.81;5026633;28;20051;-75
2023/09/18 04:47:35;;;;;;;17.98;4.13;;;19.00;99.90;;;18.49;100.00;96949.44;5043099;28;20493;-74
2023/09/18 04:50:05;;;;;;;16.90;4.53;;;19.00;99.90;;;18.57;100.00;96959.31;5043327;28;20041;-75
2023/09/18 04:52:37;;;;;;;17.00;3.83;;;19.00;99.90;;;18.53;100.00;96961.34;5042275;28;20318;-75
2023/09/18 04:55:08;;;;;;;15.57;3.47;;;18.90;99.90;;;18.47;100.00;96967.13;5043296;28;20042;-75
2023/09/18 04:57:36;;;;;;;13.70;2.35;;;18.90;99.90;;;18.43;100.00;96967.50;5044804;28;20425;-75
2023/09/18 05:00:12;;;;;;;17.95;4.18;;;18.90;99.90;;;18.36;100.00;96962.78;5030516;28;20045;-75
2023/09/18 05:02:44;;;;;;;15.52;2.72;;;18.90;99.90;;;18.35;100.00;96969.00;5043335;28;20060;-75
2023/09/18 05:05:13;;;;;;;11.13;1.95;;;18.90;99.90;;;18.35;100.00;96961.13;5040192;28;20171;-75
2023/09/18 05:07:42;;;;;;;21.95;4.57;;;18.90;99.90;;;18.39;100.00;96945.94;5043418;28;20043;-75
2023/09/18 05:10:10;;;;;;;17.48;4.13;;;18.90;99.90;;;18.36;100.00;96928.63;5039075;28;20057;-74
2023/09/18 05:12:40;;;;;;;17.90;4.75;;;18.90;99.90;;;18.44;100.00;96914.00;5044216;28;20706;-75
2023/09/18 05:15:15;;;;;;;16.70;4.15;;;18.90;99.90;;;18.32;100.00;96929.03;5045854;28;20053;-75
2023/09/18 05:17:51;;;;;;;17.15;4.28;;;18.80;99.90;;;18.31;100.00;96930.81;5046408;28;20080;-74
2023/09/18 05:20:19;;;;;;;15.68;4.20;;;18.90;99.90;;;18.25;100.00;96928.72;5045547;28;20073;-76
2023/09/18 05:22:47;;;;;;;17.63;2.95;;;18.80;99.90;;;18.24;100.00;96924.41;5046832;28;20048;-74
2023/09/18 05:25:17;;;;;;;14.35;3.50;;;18.80;99.90;;;18.24;100.00;96923.56;5042957;28;20106;-75
2023/09/18 05:27:45;;;;;;;13.48;3.00;;;18.70;99.90;;;18.23;100.00;96941.13;5044762;28;20057;-75
2023/09/18 05:30:21;;;;;;;14.20;3.38;;;18.70;99.90;;;18.21;100.00;96958.00;5046503;28;20049;-75
2023/09/18 05:32:49;;;;;;;14.98;2.88;;;18.70;99.90;;;18.11;100.00;96944.78;5039936;28;20061;-75
2023/09/18 05:35:16;;;;;;;9.00;2.20;;;18.70;99.90;;;18.17;100.00;96954.78;5044375;28;20103;-74
2023/09/18 05:37:44;;;;;;;13.57;3.15;;;18.70;99.90;;;18.15;100.00;96944.41;5045419;28;20429;-75
2023/09/18 05:40:13;;;;;;;16.58;3.45;;;18.70;99.90;;;18.16;100.00;96953.94;5045226;28;20561;-75
2023/09/18 05:42:45;;;;;;;15.07;3.28;;;18.70;99.90;;;18.12;100.00;96972.72;5042814;28;20560;-75
2023/09/18 05:45:14;;;;;;;14.02;3.25;;;18.60;99.90;;;18.13;100.00;96977.84;5045749;28;20703;-75
2023/09/18 05:47:42;;;;;;;16.40;2.85;;;18.70;99.90;;;18.12;100.00;96980.59;5045230;28;20525;-75
2023/09/18 05:50:16;;;;;;;16.88;3.60;;;18.60;99.90;;;18.13;100.00;96984.88;5046261;28;20053;-75
2023/09/18 05:52:47;;;;;;;22.55;4.43;;;18.60;99.90;;;18.08;100.00;96982.63;5029106;28;20049;-74
2023/09/18 05:55:15;;;;;;;14.30;3.30;;;18.60;99.90;;;18.11;100.00;96985.03;5046196;28;20557;-75
2023/09/18 05:57:42;;;;;;;16.50;3.45;;;18.60;99.90;;;18.01;100.00;96989.34;5028100;28;20037;-75
2023/09/18 06:00:12;;;;;;;21.10;5.13;;;18.60;99.90;;;18.11;100.00;97005.19;5049861;28;20071;-74
2023/09/18 06:02:40;;;;;;;14.48;4.50;;;18.50;99.90;;;18.01;100.00;97005.09;5063708;28;20052;-75
2023/09/18 06:05:11;;;;;;;15.35;3.42;;;18.60;99.90;;;18.01;100.00;96989.34;5049226;28;20136;-75
2023/09/18 06:07:39;;;;;;;14.88;2.47;;;18.60;99.90;;;18.11;100.00;96997.28;5047540;28;20046;-75
2023/09/18 06:10:07;;;;;;;16.23;3.33;;;18.60;99.90;;;18.12;100.00;97030.50;5049879;28;20122;-75
2023/09/18 06:12:34;;;;;;;21.45;3.92;;;18.50;99.90;;;18.09;100.00;97023.72;5030091;28;20119;-75
2023/09/18 06:15:01;;;;;;;15.57;3.67;;;18.50;99.90;;;18.07;100.00;97025.63;5044470;28;20098;-74
2023/09/18 06:17:28;;;;;;;16.15;3.63;;;18.60;99.90;;;18.07;100.00;97030.88;5031575;28;20416;-75
2023/09/18 06:19:55;;;;;;;13.95;4.22;;;18.60;99.90;;;18.17;100.00;97030.94;5045660;28;20057;-74
2023/09/18 06:22:23;;;;;;;18.10;4.93;;;18.60;99.90;;;18.19;100.00;97044.78;5045046;28;20072;-75
2023/09/18 06:24:50;;;;;;;17.13;4.20;;;18.70;99.90;;;18.22;100.00;97034.03;5049584;28;20064;-75
2023/09/18 06:27:18;;;;;;;9.63;2.50;;;18.60;99.90;;;18.32;100.00;97031.50;5047771;28;20141;-73
2023/09/18 06:29:45;;;;;;;17.65;3.88;;;18.60;99.90;;;18.27;100.00;97020.50;5042724;28;20126;-75
2023/09/18 06:32:13;;;;;;;15.70;3.55;;;18.60;99.90;;;18.30;100.00;97030.78;5046283;28;20098;-75
2023/09/18 06:34:43;;;;;;;19.27;4.10;;;18.70;99.90;;;18.28;100.00;97017.75;5046788;28;20076;-75
2023/09/18 06:37:12;;;;;;;17.58;3.83;;;18.70;99.90;;;18.27;100.00;97013.47;5044719;28;20095;-75
2023/09/18 06:39:39;;;;;;;20.30;3.95;;;18.70;99.90;;;18.30;100.00;97017.66;5045203;28;20458;-75
2023/09/18 06:42:09;;;;;;;14.00;3.15;;;18.80;99.90;;;18.32;100.00;97020.97;5046340;28;20142;-75
2023/09/18 06:44:38;;;;;;;16.23;2.97;;;18.70;99.90;;;18.41;100.00;97033.34;5044494;28;20044;-74
2023/09/18 06:47:05;;;;;;;12.52;3.80;;;18.80;99.90;;;18.35;100.00;97013.66;5044775;28;20521;-75
2023/09/18 06:49:32;;;;;;;18.10;3.78;;;18.80;99.90;;;18.27;100.00;97036.28;5047135;28;20063;-75
2023/09/18 06:51:59;;;;;;;19.77;3.40;;;18.80;99.90;;;18.33;100.00;97033.16;5045876;28;20084;-74
2023/09/18 06:54:26;;;;;;;14.07;3.40;;;18.80;99.90;;;18.44;100.00;97027.00;5045855;28;20044;-74
2023/09/18 06:56:53;;;;;;;12.38;3.35;;;18.90;99.90;;;18.45;100.00;97037.41;5043179;28;20056;-75
2023/09/18 06:59:21;;;;;;;15.30;2.60;;;18.90;99.90;;;18.59;100.00;97036.25;5030432;28;20049;-75
2023/09/18 07:01:48;;;;;;;18.25;3.58;;;18.90;99.90;;;18.45;100.00;97019.00;5043613;28;20515;-75
2023/09/18 07:04:15;;;;;;;17.08;3.17;;;18.90;99.90;;;18.58;100.00;97019.63;5045852;28;20056;-75
2023/09/18 07:06:42;;;;;;;20.08;3.22;;;19.00;99.90;;;18.66;100.00;97021.63;5027587;28;20055;-74
2023/09/18 07:09:11;;;;;;;11.75;2.72;;;19.10;99.90;;;18.72;100.00;97013.19;5046048;28;20061;-75
2023/09/18 07:11:39;;;;;;;12.45;2.63;;;19.10;99.90;;;18.70;100.00;97036.19;5044921;28;20049;-75
2023/09/18 07:14:07;;;;;;;14.27;2.85;;;19.10;99.90;;;18.70;100.00;97032.69;5042988;28;20049;-75
2023/09/18 07:16:34;;;;;;;10.82;2.55;;;19.10;99.90;;;18.74;100.00;97028.84;5041868;28;20506;-74
2023/09/18 07:19:04;;;;;;;12.10;2.42;;;19.10;99.90;;;18.85;100.00;97030.63;5044225;28;20124;-74
2023/09/18 07:21:33;;;;;;;9.18;2.10;;;19.20;99.90;;;18.87;100.00;97029.50;5043059;28;20110;-75
2023/09/18 07:24:00;;;;;;;15.02;2.67;;;19.20;99.90;;;19.01;100.00;97026.53;5045216;28;20077;-75
2023/09/18 07:26:28;;;;;;;11.23;2.80;;;19.30;99.90;;;18.95;100.00;97018.34;5046837;28;20104;-74
2023/09/18 07:28:55;;;;;;;10.50;3.25;;;19.20;99.90;;;18.87;100.00;97026.06;5029035;28;20053;-74
2023/09/18 07:31:22;;;;;;;14.57;3.00;;;19.20;99.90;;;18.97;100.00;97030.38;5044278;28;20077;-73
2023/09/18 07:33:49;;;;;;;8.85;2.45;;;19.30;99.90;;;18.93;100.00;97017.63;5046135;28;20479;-75
2023/09/18 07:36:17;;;;;;;12.40;2.80;;;19.40;99.90;;;19.05;100.00;97011.34;5044763;28;20079;-74
2023/09/18 07:38:46;;;;;;;9.38;2.53;;;19.40;99.90;;;19.04;100.00;97022.81;5026199;28;20079;-75
2023/09/18 07:41:15;;;;;;;10.48;2.40;;;19.50;99.90;;;19.00;100.00;97026.69;5043945;28;20047;-75
2023/09/18 07:43:42;;;;;;;13.40;2.38;;;19.50;99.90;;;19.09;100.00;97031.16;5044274;28;20108;-74
2023/09/18 07:46:10;;;;;;;9.68;1.67;;;19.40;99.90;;;18.97;100.00;97026.94;5041904;28;20148;-75
2023/09/18 07:48:37;;;;;;;12.00;2.15;;;19.40;99.90;;;19.19;100.00;97031.19;5044302;28;20563;-75
2023/09/18 07:51:05;;;;;;;11.23;1.45;;;19.30;99.90;;;19.09;100.00;97020.63;5043141;28;20075;-75
2023/09/18 07:53:32;;;;;;;7.95;1.30;;;19.30;99.90;;;18.92;100.00;97022.06;5015787;28;20136;-75
2023/09/18 07:56:01;;;;;;;8.48;1.63;;;19.30;99.90;;;18.78;100.00;97028.50;5044640;28;20044;-75
2023/09/18 07:58:33;;;;;;;3.65;0.95;;;19.20;99.90;;;18.93;100.00;97031.63;5044830;28;20122;-73
2023/09/18 08:01:00;;;;;;;5.22;0.93;;;19.20;99.90;;;18.95;100.00;97020.97;5043713;28;20045;-75
2023/09/18 08:03:28;;;;;;;4.55;0.80;;;19.30;99.90;;;18.93;100.00;97023.75;5044312;28;20055;-75
2023/09/18 08:05:56;;;;;;;4.25;1.23;;;19.30;99.90;;;19.03;100.00;97008.00;5027828;28;20057;-73
2023/09/18 08:08:24;;;;;;;8.98;1.88;;;19.20;99.90;;;18.87;100.00;97016.38;5044542;28;20107;-74
2023/09/18 08:10:52;;;;;;;6.90;1.15;;;19.30;99.90;;;18.81;100.00;97019.50;5044200;28;20160;-75
2023/09/18 08:13:20;;;;;;;4.32;0.85;;;19.20;99.90;;;18.90;100.00;97021.34;5045269;28;20132;-75
2023/09/18 08:15:47;;;;;;;3.83;0.95;;;19.20;99.90;;;18.86;100.00;97016.50;5044916;28;20056;-75
2023/09/18 08:18:14;;;;;;;8.27;1.10;;;19.20;99.90;;;18.96;100.00;97030.53;5059726;28;20052;-75
2023/09/18 08:20:45;;;;;;;5.13;1.00;;;19.30;99.90;;;18.95;100.00;97037.59;5043964;28;20099;-75
2023/09/18 08:23:12;;;;;;;5.63;1.23;;;19.30;99.90;;;18.92;100.00;97022.06;5047826;28;20053;-75
2023/09/18 08:25:41;;;;;;;6.57;1.02;;;19.40;99.90;;;18.91;100.00;97020.41;5043947;28;20077;-75
2023/09/18 08:28:08;;;;;;;6.88;1.20;;;19.20;99.90;;;18.90;100.00;97026.63;5048072;28;20048;-75
2023/09/18 08:30:38;;;;;;;3.20;1.02;;;19.30;99.90;;;19.07;100.00;97025.19;5027071;28;20045;-74
2023/09/18 08:33:06;;;;;;;5.15;1.27;;;19.20;99.90;;;18.98;100.00;97020.72;5045682;28;20118;-74
2023/09/18 08:35:33;;;;;;;8.35;1.08;;;19.20;99.90;;;18.98;100.00;97025.97;5044080;28;20410;-74
2023/09/18 08:38:00;;;;;;;4.43;0.90;;;19.30;99.90;;;19.31;100.00;97011.69;5061119;28;20049;-74
2023/09/18 08:40:28;;;;;;;3.50;0.90;;;19.50;99.90;;;19.50;100.00;97005.66;5043267;28;20111;-74
2023/09/18 08:43:03;;;;;;;5.13;1.05;;;19.70;99.90;;;19.33;100.00;97030.81;5045520;28;20048;-75
2023/09/18 08:45:50;;;;;;;6.88;1.33;;;19.80;99.90;;;19.39;100.00;97018.94;5042683;28;20068;-74
2023/09/18 08:48:18;;;;;;;9.30;1.25;;;19.90;99.90;;;19.59;100.00;97038.22;5042986;28;20041;-75
2023/09/18 08:50:47;;;;;;;7.15;1.40;;;19.80;99.90;;;19.74;100.00;97034.28;5043739;28;20055;-74
2023/09/18 08:53:14;;;;;;;7.82;1.25;;;19.90;99.90;;;19.87;100.00;97039.31;5042813;28;20048;-74
2023/09/18 08:55:42;;;;;;;11.02;1.60;;;20.00;99.90;;;19.97;100.00;97026.13;5044258;28;20052;-75
2023/09/18 08:58:09;;;;;;;5.03;1.00;;;20.20;99.90;;;20.11;100.00;97036.25;5042883;28;20052;-75
2023/09/18 09:00:38;;;;;;;4.28;1.15;;;20.20;99.90;;;19.92;100.00;97016.00;5042192;28;20079;-75
2023/09/18 09:03:06;;;;;;;6.65;1.23;;;20.30;99.90;;;19.87;100.00;97046.38;5041594;28;20506;-74
2023/09/18 09:05:33;;;;;;;4.10;1.02;;;20.30;99.90;;;19.78;100.00;97048.84;5025430;28;20076;-74
2023/09/18 09:08:01;;;;;;;4.88;1.27;;;20.10;99.90;;;19.80;100.00;97046.09;5039202;28;20580;-74
2023/09/18 09:10:29;;;;;;;6.28;1.42;;;20.00;99.90;;;19.73;100.00;97034.41;5037744;28;20056;-74
2023/09/18 09:12:59;;;;;;;7.60;1.20;;;20.10;99.90;;;19.96;100.00;97040.28;5037563;28;20068;-74
2023/09/18 09:15:35;;;;;;;4.72;1.05;;;20.10;99.90;;;20.12;100.00;97022.13;5042650;28;20053;-73
2023/09/18 09:18:05;;;;;;;5.57;1.13;;;20.40;99.90;;;21.22;100.00;97021.66;5040592;28;20564;-74
2023/09/18 09:20:35;;;;;;;;;;;21.10;99.90;;;21.01;100.00;97018.41;5043398;28;20041;-74
2023/09/18 09:23:06;;;;;;;5.10;1.17;;;21.00;99.90;;;20.74;100.00;97027.09;5041928;28;19924;-74
2023/09/18 09:25:34;;;;;;;6.93;1.27;;;20.90;99.90;;;20.40;100.00;97035.44;5056943;28;20045;-73
2023/09/18 09:28:04;;;;;;;6.70;0.85;;;20.90;99.90;;;20.85;100.00;97027.75;5040936;28;20733;-73
2023/09/18 09:30:35;;;;;;;8.48;1.20;;;20.80;99.90;;;20.77;100.00;97026.81;5043313;28;20371;-72
2023/09/18 09:33:05;;;;;;;6.15;1.20;;;20.90;99.90;;;20.44;100.00;97031.56;5044505;28;20081;-73
2023/09/18 09:35:34;;;;;;;3.97;1.10;;;20.80;99.90;;;20.35;100.00;97027.94;5044437;28;20136;-73
2023/09/18 09:38:08;;;;;;;5.03;1.20;;;20.70;99.90;;;20.22;100.00;97033.50;5043273;28;20049;-72
2023/09/18 09:40:40;;;;;;;8.93;1.45;;;20.70;99.90;;;20.41;100.00;97030.03;5043007;28;20114;-74
2023/09/18 09:43:10;;;;;;;9.48;1.25;;;20.60;99.90;;;20.19;100.00;97025.06;5027329;28;20056;-72
2023/09/18 09:45:39;;;;;;;3.72;1.15;;;20.60;99.90;;;20.25;100.00;97035.88;5045082;28;20052;-73
2023/09/18 09:48:08;;;;;;;6.20;1.40;;;20.40;99.90;;;20.44;100.00;97040.28;5044572;28;20103;-73
2023/09/18 09:50:48;;;;;;;7.07;1.15;;;20.40;99.90;;;20.45;100.00;97035.84;5058368;28;20103;-72
2023/09/18 09:53:16;;;;;;;3.28;1.17;;;20.50;99.90;;;20.56;100.00;97040.13;5042909;28;20045;-74
2023/09/18 09:55:44;;;;;;;11.05;1.45;;;20.50;99.90;;;20.48;100.00;97046.94;5044961;28;20049;-73
2023/09/18 09:58:13;;;;;;;5.85;0.90;;;20.30;99.90;;;20.59;100.00;97042.50;5043283;28;20053;-74
2023/09/18 10:00:50;;;;;;;6.05;1.10;;;20.50;99.90;;;20.66;100.00;97056.78;5042095;28;20099;-74
2023/09/18 10:03:20;;;;;;;4.28;1.00;;;20.50;99.90;;;20.71;100.00;97070.41;5043373;28;20049;-75
2023/09/18 10:05:53;;;;;;;8.98;1.63;;;20.40;99.90;;;20.52;100.00;97055.41;5041753;28;20123;-74
2023/09/18 10:08:26;;;;;;;3.88;1.23;;;20.60;99.90;;;20.22;100.00;97041.41;5042018;28;20082;-74
2023/09/18 10:11:01;;;;;;;5.82;1.10;;;20.50;99.90;;;20.61;100.00;97056.41;5051818;28;20438;-73
2023/09/18 10:13:49;;;;;;;6.95;1.15;;;20.70;99.90;;;20.60;100.00;97031.84;5038259;28;20057;-74
2023/09/18 10:16:19;;;;;;;6.65;1.17;;;20.80;99.90;;;20.52;100.00;97039.56;5041138;28;20064;-74